sensor_id;sensor_type;location;lat;lon;timestamp;P1;durP1;ratioP1;P2;durP2;ratioP2
10469;SDS011;5282;47.052;15.458;2022-09-09T00:02:15;0.93;;;0.80;;
10469;SDS011;5282;47.052;15.458;2022-09-09T00:04:48;1.23;;;0.80;;
10469;SDS011;5282;47.052;15.458;2022-09-09T00:07:27;1.40;;;1.30;;
10469;SDS011;5282;47.052;15.458;2022-09-09T00:10:09;1.70;;;1.30;;
10469;SDS011;5282;47.052;15.458;2022-09-09T00:12:46;1.00;;;1.00;;
10469;SDS011;5282;47.052;15.458;2022-09-09T00:15:22;1.70;;;1.13;;
10469;SDS011;5282;47.052;15.458;2022-09-09T00:17:53;2.23;;;1.27;;
10469;SDS011;5282;47.052;15.458;2022-09-09T00:20:27;1.17;;;0.90;;
10469;SDS011;5282;47.052;15.458;2022-09-09T00:23:00;0.93;;;0.90;;
10469;SDS011;5282;47.052;15.458;2022-09-09T00:25:35;0.90;;;0.90;;
10469;SDS011;5282;47.052;15.458;2022-09-09T00:28:08;1.40;;;1.07;;
10469;SDS011;5282;47.052;15.458;2022-09-09T00:30:44;2.13;;;0.80;;
10469;SDS011;5282;47.052;15.458;2022-09-09T00:33:13;1.07;;;0.90;;
10469;SDS011;5282;47.052;15.458;2022-09-09T00:35:47;2.10;;;1.10;;
10469;SDS011;5282;47.052;15.458;2022-09-09T00:38:20;2.47;;;0.80;;
10469;SDS011;5282;47.052;15.458;2022-09-09T00:40:53;1.70;;;0.90;;
10469;SDS011;5282;47.052;15.458;2022-09-09T00:43:28;0.80;;;0.80;;
10469;SDS011;5282;47.052;15.458;2022-09-09T00:46:10;1.10;;;1.10;;
10469;SDS011;5282;47.052;15.458;2022-09-09T00:48:51;2.23;;;1.10;;
10469;SDS011;5282;47.052;15.458;2022-09-09T00:51:25;1.83;;;1.00;;
10469;SDS011;5282;47.052;15.458;2022-09-09T00:54:09;0.93;;;0.93;;
10469;SDS011;5282;47.052;15.458;2022-09-09T00:56:50;0.80;;;0.80;;
10469;SDS011;5282;47.052;15.458;2022-09-09T00:59:27;0.80;;;0.80;;
10469;SDS011;5282;47.052;15.458;2022-09-09T01:02:02;0.80;;;0.80;;
10469;SDS011;5282;47.052;15.458;2022-09-09T01:04:36;1.23;;;0.90;;
10469;SDS011;5282;47.052;15.458;2022-09-09T01:07:04;1.37;;;0.90;;
10469;SDS011;5282;47.052;15.458;2022-09-09T01:09:38;1.80;;;1.10;;
10469;SDS011;5282;47.052;15.458;2022-09-09T01:12:15;1.33;;;0.90;;
10469;SDS011;5282;47.052;15.458;2022-09-09T01:14:45;2.73;;;1.30;;
10469;SDS011;5282;47.052;15.458;2022-09-09T01:17:17;4.30;;;1.00;;
10469;SDS011;5282;47.052;15.458;2022-09-09T01:19:52;4.13;;;1.73;;
10469;SDS011;5282;47.052;15.458;2022-09-09T01:22:29;1.87;;;1.43;;
10469;SDS011;5282;47.052;15.458;2022-09-09T01:25:15;1.37;;;1.30;;
10469;SDS011;5282;47.052;15.458;2022-09-09T01:27:54;1.40;;;1.10;;
10469;SDS011;5282;47.052;15.458;2022-09-09T01:30:24;3.67;;;1.53;;
10469;SDS011;5282;47.052;15.458;2022-09-09T01:32:53;1.50;;;1.40;;
10469;SDS011;5282;47.052;15.458;2022-09-09T01:35:27;1.50;;;1.40;;
10469;SDS011;5282;47.052;15.458;2022-09-09T01:37:59;1.50;;;1.40;;
10469;SDS011;5282;47.052;15.458;2022-09-09T01:40:26;1.27;;;1.23;;
10469;SDS011;5282;47.052;15.458;2022-09-09T01:42:55;1.60;;;1.33;;
10469;SDS011;5282;47.052;15.458;2022-09-09T01:45:23;3.60;;;1.70;;
10469;SDS011;5282;47.052;15.458;2022-09-09T01:47:52;1.40;;;1.40;;
10469;SDS011;5282;47.052;15.458;2022-09-09T01:50:19;2.23;;;1.57;;
10469;SDS011;5282;47.052;15.458;2022-09-09T01:52:48;1.43;;;1.37;;
10469;SDS011;5282;47.052;15.458;2022-09-09T01:55:19;2.10;;;1.23;;
10469;SDS011;5282;47.052;15.458;2022-09-09T01:57:56;2.67;;;1.50;;
10469;SDS011;5282;47.052;15.458;2022-09-09T02:00:36;1.27;;;1.27;;
10469;SDS011;5282;47.052;15.458;2022-09-09T02:03:13;1.57;;;1.47;;
10469;SDS011;5282;47.052;15.458;2022-09-09T02:05:52;1.50;;;1.50;;
10469;SDS011;5282;47.052;15.458;2022-09-09T02:08:29;1.60;;;1.60;;
10469;SDS011;5282;47.052;15.458;2022-09-09T02:11:06;1.67;;;1.53;;
10469;SDS011;5282;47.052;15.458;2022-09-09T02:13:39;1.83;;;1.73;;
10469;SDS011;5282;47.052;15.458;2022-09-09T02:16:11;1.90;;;1.70;;
10469;SDS011;5282;47.052;15.458;2022-09-09T02:18:44;1.73;;;1.63;;
10469;SDS011;5282;47.052;15.458;2022-09-09T02:21:17;2.07;;;1.87;;
10469;SDS011;5282;47.052;15.458;2022-09-09T02:23:52;2.13;;;1.93;;
10469;SDS011;5282;47.052;15.458;2022-09-09T02:26:19;1.90;;;1.90;;
10469;SDS011;5282;47.052;15.458;2022-09-09T02:28:50;1.63;;;1.53;;
10469;SDS011;5282;47.052;15.458;2022-09-09T02:31:21;1.60;;;1.50;;
10469;SDS011;5282;47.052;15.458;2022-09-09T02:33:52;1.87;;;1.70;;
10469;SDS011;5282;47.052;15.458;2022-09-09T02:36:29;1.97;;;1.87;;
10469;SDS011;5282;47.052;15.458;2022-09-09T02:39:02;1.77;;;1.70;;
10469;SDS011;5282;47.052;15.458;2022-09-09T02:41:38;1.50;;;1.50;;
10469;SDS011;5282;47.052;15.458;2022-09-09T02:44:10;1.80;;;1.80;;
10469;SDS011;5282;47.052;15.458;2022-09-09T02:46:44;1.80;;;1.70;;
10469;SDS011;5282;47.052;15.458;2022-09-09T02:49:25;1.60;;;1.60;;
10469;SDS011;5282;47.052;15.458;2022-09-09T02:52:00;2.83;;;1.97;;
10469;SDS011;5282;47.052;15.458;2022-09-09T02:54:37;2.10;;;2.00;;
10469;SDS011;5282;47.052;15.458;2022-09-09T02:57:06;2.20;;;1.90;;
10469;SDS011;5282;47.052;15.458;2022-09-09T02:59:39;1.93;;;1.90;;
10469;SDS011;5282;47.052;15.458;2022-09-09T03:02:09;1.80;;;1.80;;
10469;SDS011;5282;47.052;15.458;2022-09-09T03:04:37;5.97;;;2.00;;
10469;SDS011;5282;47.052;15.458;2022-09-09T03:07:12;1.93;;;1.60;;
10469;SDS011;5282;47.052;15.458;2022-09-09T03:09:45;1.80;;;1.70;;
10469;SDS011;5282;47.052;15.458;2022-09-09T03:12:25;3.30;;;1.90;;
10469;SDS011;5282;47.052;15.458;2022-09-09T03:14:56;2.03;;;1.90;;
10469;SDS011;5282;47.052;15.458;2022-09-09T03:17:27;3.60;;;1.87;;
10469;SDS011;5282;47.052;15.458;2022-09-09T03:19:58;1.80;;;1.80;;
10469;SDS011;5282;47.052;15.458;2022-09-09T03:22:32;2.20;;;2.00;;
10469;SDS011;5282;47.052;15.458;2022-09-09T03:25:10;1.87;;;1.70;;
10469;SDS011;5282;47.052;15.458;2022-09-09T03:27:52;2.87;;;1.97;;
10469;SDS011;5282;47.052;15.458;2022-09-09T03:30:26;2.40;;;1.70;;
10469;SDS011;5282;47.052;15.458;2022-09-09T03:32:59;1.80;;;1.63;;
10469;SDS011;5282;47.052;15.458;2022-09-09T03:35:27;2.07;;;1.90;;
10469;SDS011;5282;47.052;15.458;2022-09-09T03:37:56;2.27;;;1.80;;
10469;SDS011;5282;47.052;15.458;2022-09-09T03:40:25;1.70;;;1.70;;
10469;SDS011;5282;47.052;15.458;2022-09-09T03:42:52;1.83;;;1.73;;
10469;SDS011;5282;47.052;15.458;2022-09-09T03:45:22;1.43;;;1.43;;
10469;SDS011;5282;47.052;15.458;2022-09-09T03:47:57;2.60;;;1.47;;
10469;SDS011;5282;47.052;15.458;2022-09-09T03:50:28;1.87;;;1.60;;
10469;SDS011;5282;47.052;15.458;2022-09-09T03:52:57;1.90;;;1.83;;
10469;SDS011;5282;47.052;15.458;2022-09-09T03:55:24;1.80;;;1.70;;
10469;SDS011;5282;47.052;15.458;2022-09-09T03:57:52;4.23;;;1.80;;
10469;SDS011;5282;47.052;15.458;2022-09-09T04:00:21;1.67;;;1.67;;
10469;SDS011;5282;47.052;15.458;2022-09-09T04:02:50;2.97;;;1.90;;
10469;SDS011;5282;47.052;15.458;2022-09-09T04:05:20;1.80;;;1.70;;
10469;SDS011;5282;47.052;15.458;2022-09-09T04:07:51;2.83;;;2.23;;
10469;SDS011;5282;47.052;15.458;2022-09-09T04:10:19;1.70;;;1.60;;
10469;SDS011;5282;47.052;15.458;2022-09-09T04:12:47;1.83;;;1.70;;
10469;SDS011;5282;47.052;15.458;2022-09-09T04:15:14;1.90;;;1.80;;
10469;SDS011;5282;47.052;15.458;2022-09-09T04:17:41;2.20;;;2.10;;
10469;SDS011;5282;47.052;15.458;2022-09-09T04:20:11;2.73;;;2.23;;
10469;SDS011;5282;47.052;15.458;2022-09-09T04:22:42;3.93;;;2.23;;
10469;SDS011;5282;47.052;15.458;2022-09-09T04:25:09;2.60;;;2.50;;
10469;SDS011;5282;47.052;15.458;2022-09-09T04:27:36;2.53;;;2.33;;
10469;SDS011;5282;47.052;15.458;2022-09-09T04:30:03;2.40;;;2.30;;
10469;SDS011;5282;47.052;15.458;2022-09-09T04:32:33;2.50;;;2.40;;
10469;SDS011;5282;47.052;15.458;2022-09-09T04:35:01;2.93;;;2.73;;
10469;SDS011;5282;47.052;15.458;2022-09-09T04:37:28;2.77;;;2.60;;
10469;SDS011;5282;47.052;15.458;2022-09-09T04:39:57;2.53;;;2.43;;
10469;SDS011;5282;47.052;15.458;2022-09-09T04:42:27;2.70;;;2.60;;
10469;SDS011;5282;47.052;15.458;2022-09-09T04:44:54;2.47;;;2.33;;
10469;SDS011;5282;47.052;15.458;2022-09-09T04:47:21;4.30;;;2.87;;
10469;SDS011;5282;47.052;15.458;2022-09-09T04:49:48;2.57;;;2.40;;
10469;SDS011;5282;47.052;15.458;2022-09-09T04:52:15;2.50;;;2.40;;
10469;SDS011;5282;47.052;15.458;2022-09-09T04:54:43;2.90;;;2.70;;
10469;SDS011;5282;47.052;15.458;2022-09-09T04:57:13;2.77;;;2.53;;
10469;SDS011;5282;47.052;15.458;2022-09-09T04:59:39;2.30;;;2.20;;
10469;SDS011;5282;47.052;15.458;2022-09-09T05:02:06;2.83;;;2.70;;
10469;SDS011;5282;47.052;15.458;2022-09-09T05:04:33;3.70;;;2.10;;
10469;SDS011;5282;47.052;15.458;2022-09-09T05:07:00;2.63;;;2.50;;
10469;SDS011;5282;47.052;15.458;2022-09-09T05:09:29;2.70;;;2.30;;
10469;SDS011;5282;47.052;15.458;2022-09-09T05:11:56;2.53;;;2.33;;
10469;SDS011;5282;47.052;15.458;2022-09-09T05:14:25;2.53;;;2.37;;
10469;SDS011;5282;47.052;15.458;2022-09-09T05:16:52;2.40;;;2.30;;
10469;SDS011;5282;47.052;15.458;2022-09-09T05:19:19;2.20;;;2.10;;
10469;SDS011;5282;47.052;15.458;2022-09-09T05:21:46;4.27;;;2.17;;
10469;SDS011;5282;47.052;15.458;2022-09-09T05:24:13;5.03;;;2.47;;
10469;SDS011;5282;47.052;15.458;2022-09-09T05:26:39;2.50;;;2.10;;
10469;SDS011;5282;47.052;15.458;2022-09-09T05:29:06;2.13;;;2.03;;
10469;SDS011;5282;47.052;15.458;2022-09-09T05:31:35;4.40;;;2.30;;
10469;SDS011;5282;47.052;15.458;2022-09-09T05:34:01;3.00;;;2.60;;
10469;SDS011;5282;47.052;15.458;2022-09-09T05:36:28;2.37;;;2.27;;
10469;SDS011;5282;47.052;15.458;2022-09-09T05:38:55;2.50;;;2.40;;
10469;SDS011;5282;47.052;15.458;2022-09-09T05:41:22;2.60;;;2.33;;
10469;SDS011;5282;47.052;15.458;2022-09-09T05:43:49;2.67;;;2.40;;
10469;SDS011;5282;47.052;15.458;2022-09-09T05:46:18;2.57;;;2.40;;
10469;SDS011;5282;47.052;15.458;2022-09-09T05:48:48;2.70;;;2.50;;
10469;SDS011;5282;47.052;15.458;2022-09-09T05:51:17;2.40;;;2.20;;
10469;SDS011;5282;47.052;15.458;2022-09-09T05:53:46;2.77;;;2.60;;
10469;SDS011;5282;47.052;15.458;2022-09-09T05:56:15;3.63;;;2.43;;
10469;SDS011;5282;47.052;15.458;2022-09-09T05:58:44;3.27;;;2.40;;
10469;SDS011;5282;47.052;15.458;2022-09-09T06:01:13;2.87;;;2.77;;
10469;SDS011;5282;47.052;15.458;2022-09-09T06:03:42;4.07;;;2.70;;
10469;SDS011;5282;47.052;15.458;2022-09-09T06:06:14;2.67;;;2.47;;
10469;SDS011;5282;47.052;15.458;2022-09-09T06:08:43;2.50;;;2.30;;
10469;SDS011;5282;47.052;15.458;2022-09-09T06:11:12;5.07;;;2.93;;
10469;SDS011;5282;47.052;15.458;2022-09-09T06:13:42;2.80;;;2.70;;
10469;SDS011;5282;47.052;15.458;2022-09-09T06:16:13;3.67;;;2.97;;
10469;SDS011;5282;47.052;15.458;2022-09-09T06:18:41;3.57;;;3.30;;
10469;SDS011;5282;47.052;15.458;2022-09-09T06:21:11;2.80;;;2.70;;
10469;SDS011;5282;47.052;15.458;2022-09-09T06:23:44;3.37;;;2.60;;
10469;SDS011;5282;47.052;15.458;2022-09-09T06:26:12;2.57;;;2.47;;
10469;SDS011;5282;47.052;15.458;2022-09-09T06:28:40;2.67;;;2.47;;
10469;SDS011;5282;47.052;15.458;2022-09-09T06:31:08;2.80;;;2.60;;
10469;SDS011;5282;47.052;15.458;2022-09-09T06:33:37;2.50;;;2.40;;
10469;SDS011;5282;47.052;15.458;2022-09-09T06:36:06;2.47;;;2.33;;
10469;SDS011;5282;47.052;15.458;2022-09-09T06:38:38;2.43;;;2.33;;
10469;SDS011;5282;47.052;15.458;2022-09-09T06:41:04;2.80;;;2.60;;
10469;SDS011;5282;47.052;15.458;2022-09-09T06:43:34;2.50;;;2.40;;
10469;SDS011;5282;47.052;15.458;2022-09-09T06:46:02;3.13;;;2.50;;
10469;SDS011;5282;47.052;15.458;2022-09-09T06:48:31;2.43;;;2.33;;
10469;SDS011;5282;47.052;15.458;2022-09-09T06:51:02;2.77;;;2.53;;
10469;SDS011;5282;47.052;15.458;2022-09-09T06:53:30;2.80;;;2.70;;
10469;SDS011;5282;47.052;15.458;2022-09-09T06:56:01;2.70;;;2.50;;
10469;SDS011;5282;47.052;15.458;2022-09-09T06:58:28;2.60;;;2.50;;
10469;SDS011;5282;47.052;15.458;2022-09-09T07:01:01;2.40;;;2.30;;
10469;SDS011;5282;47.052;15.458;2022-09-09T07:03:29;2.50;;;2.30;;
10469;SDS011;5282;47.052;15.458;2022-09-09T07:05:56;3.10;;;2.30;;
10469;SDS011;5282;47.052;15.458;2022-09-09T07:08:23;2.60;;;2.40;;
10469;SDS011;5282;47.052;15.458;2022-09-09T07:10:51;2.40;;;2.20;;
10469;SDS011;5282;47.052;15.458;2022-09-09T07:13:23;3.07;;;2.60;;
10469;SDS011;5282;47.052;15.458;2022-09-09T07:15:50;2.93;;;2.83;;
10469;SDS011;5282;47.052;15.458;2022-09-09T07:18:17;2.53;;;2.43;;
10469;SDS011;5282;47.052;15.458;2022-09-09T07:20:52;3.20;;;2.30;;
10469;SDS011;5282;47.052;15.458;2022-09-09T07:23:20;4.60;;;3.00;;
10469;SDS011;5282;47.052;15.458;2022-09-09T07:25:47;5.57;;;2.70;;
10469;SDS011;5282;47.052;15.458;2022-09-09T07:28:16;7.17;;;3.57;;
10469;SDS011;5282;47.052;15.458;2022-09-09T07:30:45;6.03;;;3.87;;
10469;SDS011;5282;47.052;15.458;2022-09-09T07:33:19;6.17;;;3.70;;
10469;SDS011;5282;47.052;15.458;2022-09-09T07:35:46;3.33;;;3.13;;
10469;SDS011;5282;47.052;15.458;2022-09-09T07:38:13;3.20;;;3.00;;
10469;SDS011;5282;47.052;15.458;2022-09-09T07:40:40;3.63;;;2.93;;
10469;SDS011;5282;47.052;15.458;2022-09-09T07:43:07;4.37;;;2.90;;
10469;SDS011;5282;47.052;15.458;2022-09-09T07:45:34;4.27;;;3.00;;
10469;SDS011;5282;47.052;15.458;2022-09-09T07:48:03;4.23;;;2.93;;
10469;SDS011;5282;47.052;15.458;2022-09-09T07:50:31;3.17;;;2.97;;
10469;SDS011;5282;47.052;15.458;2022-09-09T07:52:58;5.17;;;3.20;;
10469;SDS011;5282;47.052;15.458;2022-09-09T07:55:25;6.70;;;3.17;;
10469;SDS011;5282;47.052;15.458;2022-09-09T07:57:53;3.90;;;2.90;;
10469;SDS011;5282;47.052;15.458;2022-09-09T08:00:21;3.93;;;3.50;;
10469;SDS011;5282;47.052;15.458;2022-09-09T08:02:49;5.50;;;3.20;;
10469;SDS011;5282;47.052;15.458;2022-09-09T08:05:17;4.90;;;3.20;;
10469;SDS011;5282;47.052;15.458;2022-09-09T08:07:44;3.57;;;3.27;;
10469;SDS011;5282;47.052;15.458;2022-09-09T08:10:11;5.23;;;3.47;;
10469;SDS011;5282;47.052;15.458;2022-09-09T08:12:40;5.90;;;4.10;;
10469;SDS011;5282;47.052;15.458;2022-09-09T08:15:07;3.87;;;3.60;;
10469;SDS011;5282;47.052;15.458;2022-09-09T08:17:36;6.47;;;3.90;;
10469;SDS011;5282;47.052;15.458;2022-09-09T08:20:04;6.20;;;2.93;;
10469;SDS011;5282;47.052;15.458;2022-09-09T08:22:33;3.57;;;3.20;;
10469;SDS011;5282;47.052;15.458;2022-09-09T08:25:00;4.23;;;3.80;;
10469;SDS011;5282;47.052;15.458;2022-09-09T08:27:27;7.23;;;3.70;;
10469;SDS011;5282;47.052;15.458;2022-09-09T08:29:55;6.37;;;3.87;;
10469;SDS011;5282;47.052;15.458;2022-09-09T08:32:22;6.17;;;3.73;;
10469;SDS011;5282;47.052;15.458;2022-09-09T08:34:49;5.37;;;3.43;;
10469;SDS011;5282;47.052;15.458;2022-09-09T08:37:16;3.93;;;3.60;;
10469;SDS011;5282;47.052;15.458;2022-09-09T08:39:46;3.93;;;3.50;;
10469;SDS011;5282;47.052;15.458;2022-09-09T08:42:28;5.57;;;3.17;;
10469;SDS011;5282;47.052;15.458;2022-09-09T08:45:12;4.70;;;3.50;;
10469;SDS011;5282;47.052;15.458;2022-09-09T08:47:48;4.00;;;3.03;;
10469;SDS011;5282;47.052;15.458;2022-09-09T08:50:27;4.17;;;3.10;;
10469;SDS011;5282;47.052;15.458;2022-09-09T08:52:58;6.27;;;3.50;;
10469;SDS011;5282;47.052;15.458;2022-09-09T08:55:32;7.53;;;3.30;;
10469;SDS011;5282;47.052;15.458;2022-09-09T08:58:09;4.03;;;3.17;;
10469;SDS011;5282;47.052;15.458;2022-09-09T09:00:41;6.27;;;3.53;;
10469;SDS011;5282;47.052;15.458;2022-09-09T09:03:22;5.10;;;3.13;;
10469;SDS011;5282;47.052;15.458;2022-09-09T09:06:01;3.50;;;3.20;;
10469;SDS011;5282;47.052;15.458;2022-09-09T09:08:36;3.27;;;2.97;;
10469;SDS011;5282;47.052;15.458;2022-09-09T09:11:12;3.33;;;3.10;;
10469;SDS011;5282;47.052;15.458;2022-09-09T09:13:40;3.50;;;3.20;;
10469;SDS011;5282;47.052;15.458;2022-09-09T09:16:14;4.27;;;2.80;;
10469;SDS011;5282;47.052;15.458;2022-09-09T09:18:48;3.00;;;2.87;;
10469;SDS011;5282;47.052;15.458;2022-09-09T09:21:17;3.20;;;3.00;;
10469;SDS011;5282;47.052;15.458;2022-09-09T09:23:51;2.60;;;2.40;;
10469;SDS011;5282;47.052;15.458;2022-09-09T09:26:25;3.70;;;2.90;;
10469;SDS011;5282;47.052;15.458;2022-09-09T09:28:59;3.00;;;2.80;;
10469;SDS011;5282;47.052;15.458;2022-09-09T09:31:34;3.00;;;2.90;;
10469;SDS011;5282;47.052;15.458;2022-09-09T09:34:01;2.77;;;2.67;;
10469;SDS011;5282;47.052;15.458;2022-09-09T09:36:33;2.77;;;2.67;;
10469;SDS011;5282;47.052;15.458;2022-09-09T09:39:07;2.60;;;2.50;;
10469;SDS011;5282;47.052;15.458;2022-09-09T09:41:37;2.80;;;2.60;;
10469;SDS011;5282;47.052;15.458;2022-09-09T09:44:19;2.50;;;2.40;;
10469;SDS011;5282;47.052;15.458;2022-09-09T09:46:51;2.60;;;2.40;;
10469;SDS011;5282;47.052;15.458;2022-09-09T09:49:18;3.33;;;2.87;;
10469;SDS011;5282;47.052;15.458;2022-09-09T09:51:45;4.77;;;2.57;;
10469;SDS011;5282;47.052;15.458;2022-09-09T09:54:17;2.70;;;2.50;;
10469;SDS011;5282;47.052;15.458;2022-09-09T09:56:50;2.63;;;2.43;;
10469;SDS011;5282;47.052;15.458;2022-09-09T09:59:32;4.37;;;2.63;;
10469;SDS011;5282;47.052;15.458;2022-09-09T10:02:13;3.20;;;2.90;;
10469;SDS011;5282;47.052;15.458;2022-09-09T10:04:42;2.50;;;2.40;;
10469;SDS011;5282;47.052;15.458;2022-09-09T10:07:11;3.30;;;3.00;;
10469;SDS011;5282;47.052;15.458;2022-09-09T10:09:39;3.53;;;2.63;;
10469;SDS011;5282;47.052;15.458;2022-09-09T10:12:12;3.13;;;2.53;;
10469;SDS011;5282;47.052;15.458;2022-09-09T10:14:51;3.70;;;2.23;;
10469;SDS011;5282;47.052;15.458;2022-09-09T10:17:30;2.00;;;1.90;;
10469;SDS011;5282;47.052;15.458;2022-09-09T10:20:22;2.63;;;2.50;;
10469;SDS011;5282;47.052;15.458;2022-09-09T10:25:56;2.50;;;2.30;;
10469;SDS011;5282;47.052;15.458;2022-09-09T10:31:49;2.83;;;2.30;;
10469;SDS011;5282;47.052;15.458;2022-09-09T10:34:34;1.97;;;1.87;;
10469;SDS011;5282;47.052;15.458;2022-09-09T10:37:18;2.20;;;2.00;;
10469;SDS011;5282;47.052;15.458;2022-09-09T10:39:54;2.50;;;2.23;;
10469;SDS011;5282;47.052;15.458;2022-09-09T10:42:30;2.17;;;2.07;;
10469;SDS011;5282;47.052;15.458;2022-09-09T10:45:02;2.03;;;1.93;;
10469;SDS011;5282;47.052;15.458;2022-09-09T10:47:49;1.77;;;1.73;;
10469;SDS011;5282;47.052;15.458;2022-09-09T10:50:31;1.73;;;1.73;;
10469;SDS011;5282;47.052;15.458;2022-09-09T10:53:09;2.10;;;2.00;;
10469;SDS011;5282;47.052;15.458;2022-09-09T10:55:45;1.83;;;1.73;;
10469;SDS011;5282;47.052;15.458;2022-09-09T10:58:20;2.10;;;2.00;;
10469;SDS011;5282;47.052;15.458;2022-09-09T11:00:53;2.67;;;2.10;;
10469;SDS011;5282;47.052;15.458;2022-09-09T11:03:23;2.17;;;2.00;;
10469;SDS011;5282;47.052;15.458;2022-09-09T11:05:56;2.03;;;1.93;;
10469;SDS011;5282;47.052;15.458;2022-09-09T11:08:26;1.73;;;1.63;;
10469;SDS011;5282;47.052;15.458;2022-09-09T11:10:57;1.57;;;1.50;;
10469;SDS011;5282;47.052;15.458;2022-09-09T11:13:31;1.80;;;1.70;;
10469;SDS011;5282;47.052;15.458;2022-09-09T11:16:10;1.77;;;1.67;;
10469;SDS011;5282;47.052;15.458;2022-09-09T11:18:46;1.60;;;1.50;;
10469;SDS011;5282;47.052;15.458;2022-09-09T11:21:15;1.77;;;1.60;;
10469;SDS011;5282;47.052;15.458;2022-09-09T11:23:48;1.80;;;1.70;;
10469;SDS011;5282;47.052;15.458;2022-09-09T11:26:21;1.67;;;1.60;;
10469;SDS011;5282;47.052;15.458;2022-09-09T11:28:59;1.63;;;1.63;;
10469;SDS011;5282;47.052;15.458;2022-09-09T11:31:45;1.77;;;1.63;;
10469;SDS011;5282;47.052;15.458;2022-09-09T11:34:36;2.60;;;1.60;;
10469;SDS011;5282;47.052;15.458;2022-09-09T11:37:17;1.70;;;1.60;;
10469;SDS011;5282;47.052;15.458;2022-09-09T11:42:46;1.23;;;1.23;;
10469;SDS011;5282;47.052;15.458;2022-09-09T11:45:19;1.27;;;1.03;;
10469;SDS011;5282;47.052;15.458;2022-09-09T11:47:54;1.87;;;1.20;;
10469;SDS011;5282;47.052;15.458;2022-09-09T11:50:30;1.47;;;1.10;;
10469;SDS011;5282;47.052;15.458;2022-09-09T11:53:14;1.37;;;1.20;;
10469;SDS011;5282;47.052;15.458;2022-09-09T11:55:48;1.40;;;1.30;;
10469;SDS011;5282;47.052;15.458;2022-09-09T11:58:27;1.50;;;1.40;;
10469;SDS011;5282;47.052;15.458;2022-09-09T12:00:59;1.40;;;1.40;;
10469;SDS011;5282;47.052;15.458;2022-09-09T12:03:39;1.60;;;1.60;;
10469;SDS011;5282;47.052;15.458;2022-09-09T12:06:09;3.33;;;1.60;;
10469;SDS011;5282;47.052;15.458;2022-09-09T12:08:41;1.50;;;1.50;;
10469;SDS011;5282;47.052;15.458;2022-09-09T12:11:10;1.40;;;1.30;;
10469;SDS011;5282;47.052;15.458;2022-09-09T12:13:38;1.47;;;1.47;;
10469;SDS011;5282;47.052;15.458;2022-09-09T12:16:26;2.50;;;1.43;;
10469;SDS011;5282;47.052;15.458;2022-09-09T12:19:12;2.10;;;1.37;;
10469;SDS011;5282;47.052;15.458;2022-09-09T12:21:45;1.83;;;1.60;;
10469;SDS011;5282;47.052;15.458;2022-09-09T12:24:23;1.63;;;1.60;;
10469;SDS011;5282;47.052;15.458;2022-09-09T12:27:00;1.60;;;1.60;;
10469;SDS011;5282;47.052;15.458;2022-09-09T12:29:37;1.73;;;1.63;;
10469;SDS011;5282;47.052;15.458;2022-09-09T12:32:15;1.57;;;1.57;;
10469;SDS011;5282;47.052;15.458;2022-09-09T12:34:48;1.50;;;1.50;;
10469;SDS011;5282;47.052;15.458;2022-09-09T12:37:21;1.40;;;1.40;;
10469;SDS011;5282;47.052;15.458;2022-09-09T12:39:55;1.40;;;1.40;;
10469;SDS011;5282;47.052;15.458;2022-09-09T12:42:24;1.83;;;1.70;;
10469;SDS011;5282;47.052;15.458;2022-09-09T12:44:53;1.30;;;1.30;;
10469;SDS011;5282;47.052;15.458;2022-09-09T12:47:23;2.07;;;1.37;;
10469;SDS011;5282;47.052;15.458;2022-09-09T12:49:56;1.50;;;1.40;;
10469;SDS011;5282;47.052;15.458;2022-09-09T12:52:26;1.77;;;1.77;;
10469;SDS011;5282;47.052;15.458;2022-09-09T12:54:57;2.00;;;1.50;;
10469;SDS011;5282;47.052;15.458;2022-09-09T12:57:29;1.40;;;1.40;;
10469;SDS011;5282;47.052;15.458;2022-09-09T13:00:11;1.23;;;1.23;;
10469;SDS011;5282;47.052;15.458;2022-09-09T13:02:49;1.40;;;1.40;;
10469;SDS011;5282;47.052;15.458;2022-09-09T13:05:20;2.00;;;1.40;;
10469;SDS011;5282;47.052;15.458;2022-09-09T13:07:49;1.50;;;1.50;;
10469;SDS011;5282;47.052;15.458;2022-09-09T13:10:20;1.17;;;1.17;;
10469;SDS011;5282;47.052;15.458;2022-09-09T13:12:52;1.40;;;1.40;;
10469;SDS011;5282;47.052;15.458;2022-09-09T13:15:20;1.20;;;1.20;;
10469;SDS011;5282;47.052;15.458;2022-09-09T13:17:53;2.80;;;1.20;;
10469;SDS011;5282;47.052;15.458;2022-09-09T13:20:24;1.40;;;1.20;;
10469;SDS011;5282;47.052;15.458;2022-09-09T13:22:52;1.33;;;1.30;;
10469;SDS011;5282;47.052;15.458;2022-09-09T13:25:22;1.30;;;1.30;;
10469;SDS011;5282;47.052;15.458;2022-09-09T13:27:52;2.10;;;1.20;;
10469;SDS011;5282;47.052;15.458;2022-09-09T13:30:22;1.30;;;1.30;;
10469;SDS011;5282;47.052;15.458;2022-09-09T13:33:00;1.90;;;1.13;;
10469;SDS011;5282;47.052;15.458;2022-09-09T13:35:33;1.83;;;1.40;;
10469;SDS011;5282;47.052;15.458;2022-09-09T13:38:06;1.30;;;1.20;;
10469;SDS011;5282;47.052;15.458;2022-09-09T13:40:35;1.20;;;1.20;;
10469;SDS011;5282;47.052;15.458;2022-09-09T13:43:02;1.83;;;1.40;;
10469;SDS011;5282;47.052;15.458;2022-09-09T13:45:30;1.20;;;1.20;;
10469;SDS011;5282;47.052;15.458;2022-09-09T13:48:08;1.90;;;1.30;;
10469;SDS011;5282;47.052;15.458;2022-09-09T13:50:37;2.00;;;1.30;;
10469;SDS011;5282;47.052;15.458;2022-09-09T13:53:04;1.63;;;1.40;;
10469;SDS011;5282;47.052;15.458;2022-09-09T13:55:31;2.67;;;1.30;;
10469;SDS011;5282;47.052;15.458;2022-09-09T13:57:59;1.70;;;1.60;;
10469;SDS011;5282;47.052;15.458;2022-09-09T14:00:28;1.27;;;1.20;;
10469;SDS011;5282;47.052;15.458;2022-09-09T14:02:57;1.50;;;1.50;;
10469;SDS011;5282;47.052;15.458;2022-09-09T14:05:26;1.40;;;1.40;;
10469;SDS011;5282;47.052;15.458;2022-09-09T14:07:55;1.50;;;1.40;;
10469;SDS011;5282;47.052;15.458;2022-09-09T14:10:22;2.33;;;1.30;;
10469;SDS011;5282;47.052;15.458;2022-09-09T14:12:48;1.23;;;1.23;;
10469;SDS011;5282;47.052;15.458;2022-09-09T14:15:15;1.60;;;1.30;;
10469;SDS011;5282;47.052;15.458;2022-09-09T14:17:42;2.50;;;1.33;;
10469;SDS011;5282;47.052;15.458;2022-09-09T14:20:11;1.30;;;1.30;;
10469;SDS011;5282;47.052;15.458;2022-09-09T14:22:43;1.60;;;1.60;;
10469;SDS011;5282;47.052;15.458;2022-09-09T14:25:12;1.60;;;1.50;;
10469;SDS011;5282;47.052;15.458;2022-09-09T14:27:39;1.60;;;1.60;;
10469;SDS011;5282;47.052;15.458;2022-09-09T14:30:08;1.90;;;1.80;;
10469;SDS011;5282;47.052;15.458;2022-09-09T14:32:36;1.80;;;1.70;;
10469;SDS011;5282;47.052;15.458;2022-09-09T14:35:03;1.80;;;1.80;;
10469;SDS011;5282;47.052;15.458;2022-09-09T14:37:31;1.60;;;1.60;;
10469;SDS011;5282;47.052;15.458;2022-09-09T14:39:58;2.10;;;2.00;;
10469;SDS011;5282;47.052;15.458;2022-09-09T14:42:26;2.03;;;1.97;;
10469;SDS011;5282;47.052;15.458;2022-09-09T14:44:55;2.10;;;2.00;;
10469;SDS011;5282;47.052;15.458;2022-09-09T14:47:22;2.07;;;1.97;;
10469;SDS011;5282;47.052;15.458;2022-09-09T14:49:49;2.30;;;2.10;;
10469;SDS011;5282;47.052;15.458;2022-09-09T14:52:15;2.17;;;2.07;;
10469;SDS011;5282;47.052;15.458;2022-09-09T14:54:42;2.43;;;2.30;;
10469;SDS011;5282;47.052;15.458;2022-09-09T14:57:09;2.00;;;1.90;;
10469;SDS011;5282;47.052;15.458;2022-09-09T14:59:38;2.70;;;2.07;;
10469;SDS011;5282;47.052;15.458;2022-09-09T15:02:04;2.77;;;1.90;;
10469;SDS011;5282;47.052;15.458;2022-09-09T15:04:31;2.00;;;1.90;;
10469;SDS011;5282;47.052;15.458;2022-09-09T15:06:58;2.10;;;2.00;;
10469;SDS011;5282;47.052;15.458;2022-09-09T15:09:26;2.30;;;2.20;;
10469;SDS011;5282;47.052;15.458;2022-09-09T15:11:52;1.60;;;1.60;;
10469;SDS011;5282;47.052;15.458;2022-09-09T15:14:20;1.93;;;1.83;;
10469;SDS011;5282;47.052;15.458;2022-09-09T15:16:48;2.20;;;2.10;;
10469;SDS011;5282;47.052;15.458;2022-09-09T15:19:15;2.17;;;2.07;;
10469;SDS011;5282;47.052;15.458;2022-09-09T15:21:44;2.10;;;2.00;;
10469;SDS011;5282;47.052;15.458;2022-09-09T15:24:11;2.30;;;2.20;;